sensor_id;sensor_type;location;lat;lon;timestamp;P1;durP1;ratioP1;P2;durP2;ratioP2
21095;SDS011;10706;49.036;12.112;2023-08-06T00:00:08;25.35;;;14.45;;
21095;SDS011;10706;49.036;12.112;2023-08-06T00:02:34;27.35;;;15.07;;
21095;SDS011;10706;49.036;12.112;2023-08-06T00:05:00;27.40;;;15.18;;
21095;SDS011;10706;49.036;12.112;2023-08-06T00:07:27;29.90;;;15.45;;
21095;SDS011;10706;49.036;12.112;2023-08-06T00:09:53;28.02;;;14.60;;
21095;SDS011;10706;49.036;12.112;2023-08-06T00:12:19;25.58;;;13.80;;
21095;SDS011;10706;49.036;12.112;2023-08-06T00:14:44;27.88;;;14.82;;
21095;SDS011;10706;49.036;12.112;2023-08-06T00:17:10;25.17;;;13.63;;
21095;SDS011;10706;49.036;12.112;2023-08-06T00:19:36;24.65;;;13.73;;
21095;SDS011;10706;49.036;12.112;2023-08-06T00:22:02;25.67;;;13.65;;
21095;SDS011;10706;49.036;12.112;2023-08-06T00:24:28;23.55;;;14.25;;
21095;SDS011;10706;49.036;12.112;2023-08-06T00:26:54;27.52;;;13.27;;
21095;SDS011;10706;49.036;12.112;2023-08-06T00:29:19;24.15;;;13.45;;
21095;SDS011;10706;49.036;12.112;2023-08-06T00:31:45;25.30;;;11.90;;
21095;SDS011;10706;49.036;12.112;2023-08-06T00:34:11;24.42;;;12.20;;
21095;SDS011;10706;49.036;12.112;2023-08-06T00:36:36;25.60;;;12.30;;
21095;SDS011;10706;49.036;12.112;2023-08-06T00:39:02;24.35;;;13.43;;
21095;SDS011;10706;49.036;12.112;2023-08-06T00:41:28;23.27;;;12.85;;
21095;SDS011;10706;49.036;12.112;2023-08-06T00:43:53;23.73;;;12.45;;
21095;SDS011;10706;49.036;12.112;2023-08-06T00:46:20;25.00;;;13.23;;
21095;SDS011;10706;49.036;12.112;2023-08-06T00:48:45;20.42;;;11.93;;
21095;SDS011;10706;49.036;12.112;2023-08-06T00:51:12;23.85;;;12.23;;
21095;SDS011;10706;49.036;12.112;2023-08-06T00:53:38;22.27;;;12.35;;
21095;SDS011;10706;49.036;12.112;2023-08-06T00:56:05;28.13;;;11.90;;
21095;SDS011;10706;49.036;12.112;2023-08-06T00:58:32;24.98;;;11.98;;
21095;SDS011;10706;49.036;12.112;2023-08-06T01:00:59;26.95;;;12.68;;
21095;SDS011;10706;49.036;12.112;2023-08-06T01:03:25;24.42;;;12.65;;
21095;SDS011;10706;49.036;12.112;2023-08-06T01:05:50;23.02;;;12.55;;
21095;SDS011;10706;49.036;12.112;2023-08-06T01:08:19;20.90;;;11.65;;
21095;SDS011;10706;49.036;12.112;2023-08-06T01:14:18;24.67;;;12.10;;
21095;SDS011;10706;49.036;12.112;2023-08-06T01:16:55;20.45;;;11.25;;
21095;SDS011;10706;49.036;12.112;2023-08-06T01:19:23;21.48;;;11.18;;
21095;SDS011;10706;49.036;12.112;2023-08-06T01:21:49;22.23;;;11.02;;
21095;SDS011;10706;49.036;12.112;2023-08-06T01:24:15;22.05;;;10.88;;
21095;SDS011;10706;49.036;12.112;2023-08-06T01:29:35;19.33;;;9.57;;
21095;SDS011;10706;49.036;12.112;2023-08-06T01:32:10;17.67;;;9.38;;
21095;SDS011;10706;49.036;12.112;2023-08-06T01:34:39;19.13;;;9.02;;
21095;SDS011;10706;49.036;12.112;2023-08-06T01:37:08;12.70;;;6.30;;
21095;SDS011;10706;49.036;12.112;2023-08-06T01:39:34;12.90;;;5.35;;
21095;SDS011;10706;49.036;12.112;2023-08-06T01:42:00;13.43;;;6.32;;
21095;SDS011;10706;49.036;12.112;2023-08-06T01:44:26;14.15;;;6.47;;
21095;SDS011;10706;49.036;12.112;2023-08-06T01:46:52;10.63;;;4.32;;
21095;SDS011;10706;49.036;12.112;2023-08-06T01:49:18;8.77;;;4.15;;
21095;SDS011;10706;49.036;12.112;2023-08-06T01:51:44;9.38;;;4.10;;
21095;SDS011;10706;49.036;12.112;2023-08-06T01:54:10;10.32;;;4.15;;
21095;SDS011;10706;49.036;12.112;2023-08-06T01:56:35;10.23;;;4.72;;
21095;SDS011;10706;49.036;12.112;2023-08-06T01:59:01;10.68;;;4.35;;
21095;SDS011;10706;49.036;12.112;2023-08-06T02:01:27;9.10;;;4.25;;
21095;SDS011;10706;49.036;12.112;2023-08-06T02:03:52;10.40;;;3.70;;
21095;SDS011;10706;49.036;12.112;2023-08-06T02:06:18;11.80;;;4.30;;
21095;SDS011;10706;49.036;12.112;2023-08-06T02:08:44;8.60;;;3.40;;
21095;SDS011;10706;49.036;12.112;2023-08-06T02:11:10;6.68;;;3.10;;
21095;SDS011;10706;49.036;12.112;2023-08-06T02:13:36;8.27;;;3.40;;
21095;SDS011;10706;49.036;12.112;2023-08-06T02:16:01;6.68;;;2.70;;
21095;SDS011;10706;49.036;12.112;2023-08-06T02:18:27;5.70;;;2.70;;
21095;SDS011;10706;49.036;12.112;2023-08-06T02:20:56;10.13;;;3.30;;
21095;SDS011;10706;49.036;12.112;2023-08-06T02:23:24;9.55;;;3.10;;
21095;SDS011;10706;49.036;12.112;2023-08-06T02:26:00;8.40;;;3.33;;
21095;SDS011;10706;49.036;12.112;2023-08-06T02:28:28;6.18;;;3.22;;
21095;SDS011;10706;49.036;12.112;2023-08-06T02:30:55;8.38;;;3.45;;
21095;SDS011;10706;49.036;12.112;2023-08-06T02:33:20;8.75;;;3.75;;
21095;SDS011;10706;49.036;12.112;2023-08-06T02:35:46;8.43;;;3.30;;
21095;SDS011;10706;49.036;12.112;2023-08-06T02:38:12;10.77;;;3.20;;
21095;SDS011;10706;49.036;12.112;2023-08-06T02:40:47;7.70;;;2.80;;
21095;SDS011;10706;49.036;12.112;2023-08-06T02:43:13;6.10;;;3.15;;
21095;SDS011;10706;49.036;12.112;2023-08-06T02:45:39;8.48;;;3.40;;
21095;SDS011;10706;49.036;12.112;2023-08-06T02:48:05;7.00;;;3.08;;
21095;SDS011;10706;49.036;12.112;2023-08-06T02:50:31;5.90;;;2.95;;
21095;SDS011;10706;49.036;12.112;2023-08-06T02:53:05;8.18;;;3.35;;
21095;SDS011;10706;49.036;12.112;2023-08-06T02:55:31;6.38;;;3.20;;
21095;SDS011;10706;49.036;12.112;2023-08-06T02:57:58;8.85;;;3.50;;
21095;SDS011;10706;49.036;12.112;2023-08-06T03:00:25;7.45;;;3.50;;
21095;SDS011;10706;49.036;12.112;2023-08-06T03:02:51;7.90;;;3.40;;
21095;SDS011;10706;49.036;12.112;2023-08-06T03:05:18;10.25;;;3.28;;
21095;SDS011;10706;49.036;12.112;2023-08-06T03:07:44;9.50;;;3.88;;
21095;SDS011;10706;49.036;12.112;2023-08-06T03:10:09;10.85;;;3.33;;
21095;SDS011;10706;49.036;12.112;2023-08-06T03:12:35;8.50;;;3.70;;
21095;SDS011;10706;49.036;12.112;2023-08-06T03:15:01;9.23;;;3.38;;
21095;SDS011;10706;49.036;12.112;2023-08-06T03:17:27;8.60;;;3.55;;
21095;SDS011;10706;49.036;12.112;2023-08-06T03:19:52;7.07;;;3.03;;
21095;SDS011;10706;49.036;12.112;2023-08-06T03:22:18;9.50;;;3.28;;
21095;SDS011;10706;49.036;12.112;2023-08-06T03:24:44;10.63;;;3.55;;
21095;SDS011;10706;49.036;12.112;2023-08-06T03:27:09;10.57;;;3.15;;
21095;SDS011;10706;49.036;12.112;2023-08-06T03:29:35;7.22;;;3.22;;
21095;SDS011;10706;49.036;12.112;2023-08-06T03:32:01;7.82;;;3.30;;
21095;SDS011;10706;49.036;12.112;2023-08-06T03:34:27;8.95;;;3.60;;
21095;SDS011;10706;49.036;12.112;2023-08-06T03:36:53;8.55;;;3.08;;
21095;SDS011;10706;49.036;12.112;2023-08-06T03:39:18;8.57;;;3.40;;
21095;SDS011;10706;49.036;12.112;2023-08-06T03:41:44;9.80;;;4.13;;
21095;SDS011;10706;49.036;12.112;2023-08-06T03:44:10;8.13;;;3.33;;
21095;SDS011;10706;49.036;12.112;2023-08-06T03:46:35;6.22;;;3.35;;
21095;SDS011;10706;49.036;12.112;2023-08-06T03:49:01;10.60;;;3.88;;
21095;SDS011;10706;49.036;12.112;2023-08-06T03:51:27;7.68;;;3.40;;
21095;SDS011;10706;49.036;12.112;2023-08-06T03:53:53;9.30;;;3.65;;
21095;SDS011;10706;49.036;12.112;2023-08-06T03:56:19;7.57;;;3.55;;
21095;SDS011;10706;49.036;12.112;2023-08-06T03:58:44;8.45;;;3.45;;
21095;SDS011;10706;49.036;12.112;2023-08-06T04:01:10;7.35;;;3.20;;
21095;SDS011;10706;49.036;12.112;2023-08-06T04:03:36;7.28;;;3.65;;
21095;SDS011;10706;49.036;12.112;2023-08-06T04:06:02;10.70;;;4.65;;
21095;SDS011;10706;49.036;12.112;2023-08-06T04:08:28;8.70;;;4.15;;
21095;SDS011;10706;49.036;12.112;2023-08-06T04:10:54;9.48;;;3.75;;
21095;SDS011;10706;49.036;12.112;2023-08-06T04:13:20;9.52;;;3.97;;
21095;SDS011;10706;49.036;12.112;2023-08-06T04:15:46;10.88;;;4.43;;
21095;SDS011;10706;49.036;12.112;2023-08-06T04:18:12;9.73;;;4.50;;
21095;SDS011;10706;49.036;12.112;2023-08-06T04:20:45;9.90;;;4.07;;
21095;SDS011;10706;49.036;12.112;2023-08-06T04:23:12;7.70;;;3.55;;
21095;SDS011;10706;49.036;12.112;2023-08-06T04:25:38;10.35;;;4.30;;
21095;SDS011;10706;49.036;12.112;2023-08-06T04:28:04;10.77;;;4.25;;
21095;SDS011;10706;49.036;12.112;2023-08-06T04:30:30;9.18;;;3.70;;
21095;SDS011;10706;49.036;12.112;2023-08-06T04:32:58;8.80;;;3.75;;
21095;SDS011;10706;49.036;12.112;2023-08-06T04:35:24;9.80;;;3.80;;
21095;SDS011;10706;49.036;12.112;2023-08-06T04:37:50;7.40;;;3.80;;
21095;SDS011;10706;49.036;12.112;2023-08-06T04:40:16;8.20;;;3.78;;
21095;SDS011;10706;49.036;12.112;2023-08-06T04:42:41;7.13;;;3.67;;
21095;SDS011;10706;49.036;12.112;2023-08-06T04:45:07;11.20;;;3.92;;
21095;SDS011;10706;49.036;12.112;2023-08-06T04:47:34;9.20;;;3.80;;
21095;SDS011;10706;49.036;12.112;2023-08-06T04:49:59;8.85;;;3.55;;
21095;SDS011;10706;49.036;12.112;2023-08-06T04:52:25;8.27;;;3.85;;
21095;SDS011;10706;49.036;12.112;2023-08-06T04:54:53;9.40;;;3.75;;
21095;SDS011;10706;49.036;12.112;2023-08-06T04:57:19;7.05;;;3.30;;
21095;SDS011;10706;49.036;12.112;2023-08-06T04:59:45;6.68;;;3.35;;
21095;SDS011;10706;49.036;12.112;2023-08-06T05:02:11;7.43;;;3.25;;
21095;SDS011;10706;49.036;12.112;2023-08-06T05:04:37;8.95;;;2.97;;
21095;SDS011;10706;49.036;12.112;2023-08-06T05:07:03;6.15;;;3.10;;
21095;SDS011;10706;49.036;12.112;2023-08-06T05:09:30;8.48;;;3.30;;
21095;SDS011;10706;49.036;12.112;2023-08-06T05:11:56;8.18;;;3.17;;
21095;SDS011;10706;49.036;12.112;2023-08-06T05:14:21;8.35;;;3.40;;
21095;SDS011;10706;49.036;12.112;2023-08-06T05:16:47;6.30;;;2.83;;
21095;SDS011;10706;49.036;12.112;2023-08-06T05:19:13;7.45;;;2.90;;
21095;SDS011;10706;49.036;12.112;2023-08-06T05:21:39;7.10;;;3.03;;
21095;SDS011;10706;49.036;12.112;2023-08-06T05:24:04;7.28;;;3.13;;
21095;SDS011;10706;49.036;12.112;2023-08-06T05:26:30;6.43;;;2.70;;
21095;SDS011;10706;49.036;12.112;2023-08-06T05:28:56;7.35;;;2.55;;
21095;SDS011;10706;49.036;12.112;2023-08-06T05:31:21;8.32;;;3.20;;
21095;SDS011;10706;49.036;12.112;2023-08-06T05:33:47;6.28;;;3.10;;
21095;SDS011;10706;49.036;12.112;2023-08-06T05:36:13;10.15;;;2.95;;
21095;SDS011;10706;49.036;12.112;2023-08-06T05:38:38;6.60;;;2.75;;
21095;SDS011;10706;49.036;12.112;2023-08-06T05:41:04;8.15;;;3.15;;
21095;SDS011;10706;49.036;12.112;2023-08-06T05:43:30;6.28;;;2.78;;
21095;SDS011;10706;49.036;12.112;2023-08-06T05:45:56;8.52;;;3.05;;
21095;SDS011;10706;49.036;12.112;2023-08-06T05:48:22;8.07;;;3.20;;
21095;SDS011;10706;49.036;12.112;2023-08-06T05:50:49;5.82;;;2.90;;
21095;SDS011;10706;49.036;12.112;2023-08-06T05:53:16;11.30;;;3.65;;
21095;SDS011;10706;49.036;12.112;2023-08-06T05:55:42;6.55;;;2.80;;
21095;SDS011;10706;49.036;12.112;2023-08-06T05:58:08;6.00;;;2.92;;
21095;SDS011;10706;49.036;12.112;2023-08-06T06:00:34;6.47;;;2.80;;
21095;SDS011;10706;49.036;12.112;2023-08-06T06:03:00;7.57;;;2.90;;
21095;SDS011;10706;49.036;12.112;2023-08-06T06:05:27;7.53;;;3.30;;
21095;SDS011;10706;49.036;12.112;2023-08-06T06:07:53;6.57;;;3.00;;
21095;SDS011;10706;49.036;12.112;2023-08-06T06:10:18;5.85;;;2.60;;
21095;SDS011;10706;49.036;12.112;2023-08-06T06:12:44;7.07;;;3.13;;
21095;SDS011;10706;49.036;12.112;2023-08-06T06:15:10;6.55;;;2.70;;
21095;SDS011;10706;49.036;12.112;2023-08-06T06:17:36;7.07;;;3.15;;
21095;SDS011;10706;49.036;12.112;2023-08-06T06:20:01;5.88;;;3.00;;
21095;SDS011;10706;49.036;12.112;2023-08-06T06:22:29;7.03;;;3.08;;
21095;SDS011;10706;49.036;12.112;2023-08-06T06:24:55;5.88;;;3.03;;
21095;SDS011;10706;49.036;12.112;2023-08-06T06:27:21;6.97;;;2.83;;
21095;SDS011;10706;49.036;12.112;2023-08-06T06:29:46;6.82;;;2.80;;
21095;SDS011;10706;49.036;12.112;2023-08-06T06:32:12;6.90;;;2.83;;
21095;SDS011;10706;49.036;12.112;2023-08-06T06:34:38;6.40;;;2.67;;
21095;SDS011;10706;49.036;12.112;2023-08-06T06:37:04;6.68;;;2.95;;
21095;SDS011;10706;49.036;12.112;2023-08-06T06:39:30;6.70;;;3.13;;
21095;SDS011;10706;49.036;12.112;2023-08-06T06:41:56;5.72;;;2.72;;
21095;SDS011;10706;49.036;12.112;2023-08-06T06:44:21;7.70;;;3.40;;
21095;SDS011;10706;49.036;12.112;2023-08-06T06:46:47;6.78;;;3.10;;
21095;SDS011;10706;49.036;12.112;2023-08-06T06:49:13;7.35;;;3.50;;
21095;SDS011;10706;49.036;12.112;2023-08-06T06:51:38;8.20;;;3.75;;
21095;SDS011;10706;49.036;12.112;2023-08-06T06:54:04;11.07;;;4.28;;
21095;SDS011;10706;49.036;12.112;2023-08-06T06:56:30;6.65;;;3.25;;
21095;SDS011;10706;49.036;12.112;2023-08-06T06:58:55;12.85;;;4.05;;
21095;SDS011;10706;49.036;12.112;2023-08-06T07:01:21;10.07;;;4.13;;
21095;SDS011;10706;49.036;12.112;2023-08-06T07:03:47;7.00;;;3.60;;
21095;SDS011;10706;49.036;12.112;2023-08-06T07:06:13;11.43;;;4.15;;
21095;SDS011;10706;49.036;12.112;2023-08-06T07:08:40;9.32;;;3.63;;
21095;SDS011;10706;49.036;12.112;2023-08-06T07:11:06;7.07;;;3.25;;
21095;SDS011;10706;49.036;12.112;2023-08-06T07:13:33;9.15;;;4.07;;
21095;SDS011;10706;49.036;12.112;2023-08-06T07:15:59;8.18;;;3.95;;
21095;SDS011;10706;49.036;12.112;2023-08-06T07:18:25;11.25;;;4.03;;
21095;SDS011;10706;49.036;12.112;2023-08-06T07:20:51;8.63;;;4.03;;
21095;SDS011;10706;49.036;12.112;2023-08-06T07:23:23;7.30;;;3.42;;
21095;SDS011;10706;49.036;12.112;2023-08-06T07:25:50;10.07;;;4.05;;
21095;SDS011;10706;49.036;12.112;2023-08-06T07:28:16;10.65;;;3.40;;
21095;SDS011;10706;49.036;12.112;2023-08-06T07:30:43;6.70;;;3.40;;
21095;SDS011;10706;49.036;12.112;2023-08-06T07:33:10;11.20;;;3.40;;
21095;SDS011;10706;49.036;12.112;2023-08-06T07:35:36;6.32;;;2.80;;
21095;SDS011;10706;49.036;12.112;2023-08-06T07:38:02;7.28;;;3.13;;
21095;SDS011;10706;49.036;12.112;2023-08-06T07:40:29;7.93;;;2.72;;
21095;SDS011;10706;49.036;12.112;2023-08-06T07:42:54;7.60;;;2.63;;
21095;SDS011;10706;49.036;12.112;2023-08-06T07:45:20;5.05;;;2.47;;
21095;SDS011;10706;49.036;12.112;2023-08-06T07:47:46;6.40;;;2.60;;
21095;SDS011;10706;49.036;12.112;2023-08-06T07:50:12;7.07;;;2.72;;
21095;SDS011;10706;49.036;12.112;2023-08-06T07:52:38;6.63;;;2.33;;
21095;SDS011;10706;49.036;12.112;2023-08-06T07:55:04;4.82;;;2.30;;
21095;SDS011;10706;49.036;12.112;2023-08-06T07:57:31;4.53;;;2.28;;
21095;SDS011;10706;49.036;12.112;2023-08-06T07:59:57;5.55;;;2.30;;
21095;SDS011;10706;49.036;12.112;2023-08-06T08:02:22;6.55;;;1.92;;
21095;SDS011;10706;49.036;12.112;2023-08-06T08:04:48;6.22;;;2.00;;
21095;SDS011;10706;49.036;12.112;2023-08-06T08:07:14;4.53;;;2.00;;
21095;SDS011;10706;49.036;12.112;2023-08-06T08:09:40;4.30;;;1.70;;
21095;SDS011;10706;49.036;12.112;2023-08-06T08:12:06;4.05;;;1.80;;
21095;SDS011;10706;49.036;12.112;2023-08-06T08:14:31;6.35;;;2.10;;
21095;SDS011;10706;49.036;12.112;2023-08-06T08:17:00;5.32;;;1.90;;
21095;SDS011;10706;49.036;12.112;2023-08-06T08:19:30;3.30;;;1.60;;
21095;SDS011;10706;49.036;12.112;2023-08-06T08:21:57;4.10;;;1.80;;
21095;SDS011;10706;49.036;12.112;2023-08-06T08:24:23;4.13;;;1.70;;
21095;SDS011;10706;49.036;12.112;2023-08-06T08:26:49;4.78;;;1.52;;
21095;SDS011;10706;49.036;12.112;2023-08-06T08:29:16;3.63;;;1.58;;
21095;SDS011;10706;49.036;12.112;2023-08-06T08:31:42;3.00;;;1.75;;
21095;SDS011;10706;49.036;12.112;2023-08-06T08:34:09;3.88;;;1.77;;
21095;SDS011;10706;49.036;12.112;2023-08-06T08:36:35;7.90;;;2.03;;
21095;SDS011;10706;49.036;12.112;2023-08-06T08:39:00;6.57;;;1.80;;
21095;SDS011;10706;49.036;12.112;2023-08-06T08:41:29;8.07;;;1.90;;
21095;SDS011;10706;49.036;12.112;2023-08-06T08:43:56;4.50;;;1.83;;
21095;SDS011;10706;49.036;12.112;2023-08-06T08:46:25;3.30;;;1.52;;
21095;SDS011;10706;49.036;12.112;2023-08-06T08:48:54;6.93;;;1.75;;
21095;SDS011;10706;49.036;12.112;2023-08-06T08:51:20;2.78;;;1.60;;
21095;SDS011;10706;49.036;12.112;2023-08-06T08:53:48;5.50;;;1.73;;
21095;SDS011;10706;49.036;12.112;2023-08-06T08:56:17;7.57;;;2.40;;
21095;SDS011;10706;49.036;12.112;2023-08-06T08:58:44;11.05;;;2.42;;
21095;SDS011;10706;49.036;12.112;2023-08-06T09:01:10;6.68;;;2.58;;
21095;SDS011;10706;49.036;12.112;2023-08-06T09:03:36;7.05;;;2.17;;
21095;SDS011;10706;49.036;12.112;2023-08-06T09:06:02;7.63;;;2.08;;
21095;SDS011;10706;49.036;12.112;2023-08-06T09:08:33;4.95;;;2.17;;
21095;SDS011;10706;49.036;12.112;2023-08-06T09:11:04;7.28;;;2.13;;
21095;SDS011;10706;49.036;12.112;2023-08-06T09:13:33;5.63;;;2.25;;
21095;SDS011;10706;49.036;12.112;2023-08-06T09:16:02;8.98;;;2.78;;
21095;SDS011;10706;49.036;12.112;2023-08-06T09:18:30;5.40;;;2.30;;
21095;SDS011;10706;49.036;12.112;2023-08-06T09:20:57;8.32;;;2.90;;
21095;SDS011;10706;49.036;12.112;2023-08-06T09:23:32;5.03;;;2.25;;
21095;SDS011;10706;49.036;12.112;2023-08-06T09:25:58;6.40;;;2.00;;
21095;SDS011;10706;49.036;12.112;2023-08-06T09:28:25;5.05;;;1.92;;
21095;SDS011;10706;49.036;12.112;2023-08-06T09:31:07;2.67;;;1.70;;
21095;SDS011;10706;49.036;12.112;2023-08-06T09:33:35;4.20;;;1.40;;
21095;SDS011;10706;49.036;12.112;2023-08-06T09:36:11;2.17;;;1.25;;
21095;SDS011;10706;49.036;12.112;2023-08-06T09:38:38;2.72;;;1.30;;
21095;SDS011;10706;49.036;12.112;2023-08-06T09:41:05;3.58;;;1.40;;
21095;SDS011;10706;49.036;12.112;2023-08-06T09:43:41;4.60;;;1.42;;
21095;SDS011;10706;49.036;12.112;2023-08-06T09:46:12;4.25;;;1.52;;
21095;SDS011;10706;49.036;12.112;2023-08-06T09:48:39;1.98;;;0.98;;
21095;SDS011;10706;49.036;12.112;2023-08-06T09:51:06;2.33;;;1.10;;
21095;SDS011;10706;49.036;12.112;2023-08-06T09:53:33;3.05;;;1.10;;
21095;SDS011;10706;49.036;12.112;2023-08-06T09:56:01;6.50;;;1.40;;
21095;SDS011;10706;49.036;12.112;2023-08-06T09:58:26;13.45;;;1.45;;
21095;SDS011;10706;49.036;12.112;2023-08-06T10:00:55;2.95;;;1.27;;
21095;SDS011;10706;49.036;12.112;2023-08-06T10:03:20;4.65;;;1.33;;
21095;SDS011;10706;49.036;12.112;2023-08-06T10:05:47;5.10;;;1.40;;
21095;SDS011;10706;49.036;12.112;2023-08-06T10:08:14;2.20;;;1.30;;
21095;SDS011;10706;49.036;12.112;2023-08-06T10:10:40;3.95;;;1.35;;
21095;SDS011;10706;49.036;12.112;2023-08-06T10:13:05;6.93;;;1.63;;
21095;SDS011;10706;49.036;12.112;2023-08-06T10:15:32;5.35;;;1.50;;
21095;SDS011;10706;49.036;12.112;2023-08-06T10:17:59;3.08;;;1.40;;
21095;SDS011;10706;49.036;12.112;2023-08-06T10:20:26;4.13;;;1.45;;
21095;SDS011;10706;49.036;12.112;2023-08-06T10:23:04;2.97;;;1.67;;
21095;SDS011;10706;49.036;12.112;2023-08-06T10:25:35;1.73;;;1.35;;
21095;SDS011;10706;49.036;12.112;2023-08-06T10:28:09;2.83;;;1.42;;
21095;SDS011;10706;49.036;12.112;2023-08-06T10:30:44;4.07;;;1.35;;
21095;SDS011;10706;49.036;12.112;2023-08-06T10:33:11;1.65;;;1.10;;
21095;SDS011;10706;49.036;12.112;2023-08-06T10:35:38;6.75;;;1.33;;
21095;SDS011;10706;49.036;12.112;2023-08-06T10:38:11;4.28;;;1.00;;
21095;SDS011;10706;49.036;12.112;2023-08-06T10:40:39;2.15;;;0.90;;
21095;SDS011;10706;49.036;12.112;2023-08-06T10:43:27;3.53;;;0.80;;
21095;SDS011;10706;49.036;12.112;2023-08-06T10:46:03;2.00;;;0.98;;
21095;SDS011;10706;49.036;12.112;2023-08-06T10:51:02;2.10;;;1.02;;
21095;SDS011;10706;49.036;12.112;2023-08-06T10:53:32;4.07;;;1.35;;
21095;SDS011;10706;49.036;12.112;2023-08-06T10:55:58;2.42;;;1.13;;
21095;SDS011;10706;49.036;12.112;2023-08-06T10:58:24;6.68;;;1.60;;
21095;SDS011;10706;49.036;12.112;2023-08-06T11:00:50;2.33;;;1.05;;
21095;SDS011;10706;49.036;12.112;2023-08-06T11:03:15;2.55;;;1.13;;
21095;SDS011;10706;49.036;12.112;2023-08-06T11:05:48;3.05;;;1.25;;
21095;SDS011;10706;49.036;12.112;2023-08-06T11:11:13;2.47;;;1.00;;
21095;SDS011;10706;49.036;12.112;2023-08-06T11:13:41;3.03;;;0.90;;
21095;SDS011;10706;49.036;12.112;2023-08-06T11:16:09;3.30;;;0.80;;
21095;SDS011;10706;49.036;12.112;2023-08-06T11:18:35;2.47;;;0.88;;
21095;SDS011;10706;49.036;12.112;2023-08-06T11:21:01;0.60;;;0.60;;
21095;SDS011;10706;49.036;12.112;2023-08-06T11:23:28;2.50;;;0.88;;
21095;SDS011;10706;49.036;12.112;2023-08-06T11:25:55;0.60;;;0.60;;
21095;SDS011;10706;49.036;12.112;2023-08-06T11:28:24;3.38;;;1.00;;
21095;SDS011;10706;49.036;12.112;2023-08-06T11:30:50;1.10;;;1.00;;
21095;SDS011;10706;49.036;12.112;2023-08-06T11:33:25;1.00;;;0.90;;
21095;SDS011;10706;49.036;12.112;2023-08-06T11:35:52;3.38;;;0.98;;
21095;SDS011;10706;49.036;12.112;2023-08-06T11:38:21;1.73;;;1.00;;
21095;SDS011;10706;49.036;12.112;2023-08-06T11:40:47;1.95;;;0.93;;
21095;SDS011;10706;49.036;12.112;2023-08-06T11:43:13;0.93;;;0.65;;
21095;SDS011;10706;49.036;12.112;2023-08-06T11:45:40;2.67;;;0.77;;
21095;SDS011;10706;49.036;12.112;2023-08-06T11:48:06;1.98;;;1.05;;
21095;SDS011;10706;49.036;12.112;2023-08-06T11:50:36;0.63;;;0.60;;
21095;SDS011;10706;49.036;12.112;2023-08-06T11:53:03;0.88;;;0.63;;
21095;SDS011;10706;49.036;12.112;2023-08-06T11:55:30;0.75;;;0.68;;
21095;SDS011;10706;49.036;12.112;2023-08-06T11:57:56;1.17;;;0.73;;
21095;SDS011;10706;49.036;12.112;2023-08-06T12:00:23;2.28;;;0.70;;
21095;SDS011;10706;49.036;12.112;2023-08-06T12:02:51;0.63;;;0.60;;
21095;SDS011;10706;49.036;12.112;2023-08-06T12:05:18;0.82;;;0.60;;
21095;SDS011;10706;49.036;12.112;2023-08-06T12:07:48;1.13;;;0.93;;
21095;SDS011;10706;49.036;12.112;2023-08-06T12:10:19;0.82;;;0.60;;
21095;SDS011;10706;49.036;12.112;2023-08-06T12:12:47;1.00;;;0.60;;
21095;SDS011;10706;49.036;12.112;2023-08-06T12:15:13;0.43;;;0.43;;
21095;SDS011;10706;49.036;12.112;2023-08-06T12:17:39;0.30;;;0.30;;
21095;SDS011;10706;49.036;12.112;2023-08-06T12:20:05;0.65;;;0.47;;
21095;SDS011;10706;49.036;12.112;2023-08-06T12:22:33;0.40;;;0.40;;
21095;SDS011;10706;49.036;12.112;2023-08-06T12:25:00;0.50;;;0.50;;
21095;SDS011;10706;49.036;12.112;2023-08-06T12:27:34;1.00;;;0.43;;
21095;SDS011;10706;49.036;12.112;2023-08-06T12:30:00;3.42;;;0.50;;
21095;SDS011;10706;49.036;12.112;2023-08-06T12:32:28;0.50;;;0.50;;
21095;SDS011;10706;49.036;12.112;2023-08-06T12:34:54;0.40;;;0.40;;
21095;SDS011;10706;49.036;12.112;2023-08-06T12:37:20;0.40;;;0.40;;
21095;SDS011;10706;49.036;12.112;2023-08-06T12:39:57;0.55;;;0.55;;
21095;SDS011;10706;49.036;12.112;2023-08-06T12:42:23;1.15;;;0.63;;
21095;SDS011;10706;49.036;12.112;2023-08-06T12:44:49;0.30;;;0.30;;
21095;SDS011;10706;49.036;12.112;2023-08-06T12:47:16;0.50;;;0.40;;
21095;SDS011;10706;49.036;12.112;2023-08-06T12:49:43;2.40;;;0.90;;
21095;SDS011;10706;49.036;12.112;2023-08-06T12:52:16;2.30;;;0.80;;
21095;SDS011;10706;49.036;12.112;2023-08-06T12:54:44;1.40;;;0.60;;
21095;SDS011;10706;49.036;12.112;2023-08-06T12:57:11;2.25;;;0.77;;
21095;SDS011;10706;49.036;12.112;2023-08-06T12:59:37;1.65;;;0.80;;
21095;SDS011;10706;49.036;12.112;2023-08-06T13:02:03;1.75;;;0.60;;
21095;SDS011;10706;49.036;12.112;2023-08-06T13:04:29;2.78;;;0.85;;
21095;SDS011;10706;49.036;12.112;2023-08-06T13:06:55;2.20;;;0.95;;
21095;SDS011;10706;49.036;12.112;2023-08-06T13:09:21;0.73;;;0.60;;
21095;SDS011;10706;49.036;12.112;2023-08-06T13:11:49;1.55;;;0.70;;
21095;SDS011;10706;49.036;12.112;2023-08-06T13:14:15;0.75;;;0.75;;
21095;SDS011;10706;49.036;12.112;2023-08-06T13:16:42;0.55;;;0.55;;
21095;SDS011;10706;49.036;12.112;2023-08-06T13:19:09;1.55;;;0.80;;
21095;SDS011;10706;49.036;12.112;2023-08-06T13:21:57;0.50;;;0.50;;
21095;SDS011;10706;49.036;12.112;2023-08-06T13:24:27;1.48;;;0.50;;
21095;SDS011;10706;49.036;12.112;2023-08-06T13:26:53;1.00;;;0.50;;
21095;SDS011;10706;49.036;12.112;2023-08-06T13:29:19;1.25;;;0.50;;
21095;SDS011;10706;49.036;12.112;2023-08-06T13:31:45;0.40;;;0.40;;
21095;SDS011;10706;49.036;12.112;2023-08-06T13:34:11;1.50;;;0.60;;
21095;SDS011;10706;49.036;12.112;2023-08-06T13:36:37;1.23;;;0.50;;
21095;SDS011;10706;49.036;12.112;2023-08-06T13:39:03;1.60;;;0.60;;
21095;SDS011;10706;49.036;12.112;2023-08-06T13:41:30;0.40;;;0.40;;
21095;SDS011;10706;49.036;12.112;2023-08-06T13:43:56;4.03;;;0.75;;
21095;SDS011;10706;49.036;12.112;2023-08-06T13:46:22;0.50;;;0.50;;
21095;SDS011;10706;49.036;12.112;2023-08-06T13:48:48;3.95;;;0.55;;
21095;SDS011;10706;49.036;12.112;2023-08-06T13:51:17;5.93;;;0.75;;
21095;SDS011;10706;49.036;12.112;2023-08-06T13:53:43;0.60;;;0.60;;
21095;SDS011;10706;49.036;12.112;2023-08-06T13:56:09;0.43;;;0.43;;
21095;SDS011;10706;49.036;12.112;2023-08-06T13:58:36;0.60;;;0.60;;
21095;SDS011;10706;49.036;12.112;2023-08-06T14:01:02;0.60;;;0.60;;
21095;SDS011;10706;49.036;12.112;2023-08-06T14:03:28;0.50;;;0.50;;
21095;SDS011;10706;49.036;12.112;2023-08-06T14:05:54;0.47;;;0.47;;
21095;SDS011;10706;49.036;12.112;2023-08-06T14:08:21;0.50;;;0.50;;
21095;SDS011;10706;49.036;12.112;2023-08-06T14:10:53;0.50;;;0.50;;
21095;SDS011;10706;49.036;12.112;2023-08-06T14:13:19;0.50;;;0.50;;
21095;SDS011;10706;49.036;12.112;2023-08-06T14:15:46;1.45;;;0.60;;
21095;SDS011;10706;49.036;12.112;2023-08-06T14:18:13;0.43;;;0.40;;
21095;SDS011;10706;49.036;12.112;2023-08-06T14:20:39;1.27;;;0.57;;
21095;SDS011;10706;49.036;12.112;2023-08-06T14:23:09;0.77;;;0.38;;
21095;SDS011;10706;49.036;12.112;2023-08-06T14:25:35;0.40;;;0.40;;
21095;SDS011;10706;49.036;12.112;2023-08-06T14:28:01;0.47;;;0.47;;
21095;SDS011;10706;49.036;12.112;2023-08-06T14:30:28;1.08;;;0.50;;
21095;SDS011;10706;49.036;12.112;2023-08-06T14:32:54;0.40;;;0.40;;
21095;SDS011;10706;49.036;12.112;2023-08-06T14:35:19;0.60;;;0.60;;
21095;SDS011;10706;49.036;12.112;2023-08-06T14:37:45;0.63;;;0.50;;
21095;SDS011;10706;49.036;12.112;2023-08-06T14:40:11;0.50;;;0.50;;